Wilson Lisbon — 5BNU3 — position and weather

sailwx.info

Track history (hours):
 
Tides and Currents Weather Stations Pressure Air Temp Water Temp Dewpoint Dewpoint Depression Visibility Wind Speed Wind Dir Waves Ship Positions

Wilson Lisbon

Last reported at 2015-Jan-26 03:33 UTC. Time now 2015-Jan-27 03:27 UTC.
Position N 55°33' E 015°19'.

Length 90 m; draft 5.7 m.

Type: Ship. MMSI: 212376000.

Date/timePositionNaut miles runAvg speedWind from/ knotsBaromVisibWave heightAir tempDewpointWater temp
2015-Jan-26 03:33N 55°33' E 015°19'9 8.2
2015-Jan-26 02:28N 55°29' E 015°04'8 8.6
2015-Jan-26 01:33N 55°26' E 014°52'8 8.3
2015-Jan-26 00:32N 55°22' E 014°39'8 8.5
2015-Jan-25 23:33N 55°15' E 014°30'8 7.5
2015-Jan-25 22:32N 55°11' E 014°18'36 8.1
2015-Jan-25 18:08N 55°12' E 013°16'5 7.8
2015-Jan-25 17:33N 55°13' E 013°08'8 8.2
2015-Jan-25 16:33N 55°15' E 012°54'8 8.3
2015-Jan-25 15:34N 55°17' E 012°40'7 6.7
2015-Jan-25 14:33N 55°24' E 012°39'9 8.8
2015-Jan-25 13:33N 55°33' E 012°42'9 9.3
2015-Jan-25 12:33N 55°42' E 012°41'8 8.1
2015-Jan-25 11:34N 55°50' E 012°41'8 8.1
2015-Jan-25 10:33N 55°58' E 012°38'7 6.7
2015-Jan-25 09:33N 56°05' E 012°36'7 7.4
2015-Jan-25 08:33N 56°09' E 012°25'9 8.6
2015-Jan-25 07:33N 56°14' E 012°13'24 8.0
2015-Jan-25 04:33N 56°36' E 011°56'8 8.1
2015-Jan-25 03:33N 56°44' E 011°52'8 7.8
2015-Jan-25 02:33N 56°52' E 011°48'8 7.5
2015-Jan-25 01:27N 56°59' E 011°41'8 7.5
2015-Jan-25 00:22N 57°07' E 011°36'7 8.1
2015-Jan-24 23:33N 57°13' E 011°40'8 7.9
2015-Jan-24 22:33N 57°21' E 011°38'6 6.3
2015-Jan-24 21:33N 57°27' E 011°37'7 6.6
2015-Jan-24 20:34N 57°34' E 011°38'7 7.2
2015-Jan-24 19:33N 57°40' E 011°46'1 1.3
2015-Jan-24 18:34N 57°40' E 011°48'2 1.8
2015-Jan-24 17:34N 57°39' E 011°45'7 7.4
2015-Jan-24 16:34N 57°36' E 011°33'7 6.7
2015-Jan-24 15:34N 57°39' E 011°22'7 6.9
2015-Jan-24 14:33N 57°42' E 011°10'7 7.4
2015-Jan-24 13:33N 57°45' E 010°57'8 8.1
2015-Jan-24 12:31N 57°47' E 010°42'110 8.5
2015-Jan-23 23:33N 56°47' E 007°52'8 8.0
2015-Jan-23 22:33N 56°41' E 007°43'8 8.0
2015-Jan-23 21:32N 56°34' E 007°34'160 8.0
2015-Jan-23 01:33N 54°17' E 005°10'8 8.0
2015-Jan-23 00:33N 54°10' E 005°03'8 8.0
2015-Jan-22 23:33N 54°03' E 004°57'8 8.1
2015-Jan-22 22:30N 53°55' E 004°55'9 8.2
2015-Jan-22 21:28N 53°46' E 004°52'8 8.2
2015-Jan-22 20:27N 53°38' E 004°50'8 9.2
2015-Jan-22 19:33N 53°30' E 004°46'1010.1
2015-Jan-22 18:34N 53°21' E 004°41'2110.4
2015-Jan-22 16:33N 53°02' E 004°24'59 7.2
2015-Jan-22 08:24N 52°17' E 003°22'54 8.8
2015-Jan-22 02:15N 51°36' E 002°24'710.1
2015-Jan-22 01:30N 51°30' E 002°17'9 9.7
2015-Jan-22 00:33N 51°22' E 002°09'7 7.1
2015-Jan-21 23:33N 51°15' E 002°10'6 6.8
2015-Jan-21 22:44N 51°10' E 002°10'3 7.6
2015-Jan-21 22:24N 51°08' E 002°08'4 5.2
2015-Jan-21 21:33N 51°03' E 002°07'9 7.3
2015-Jan-21 20:19N 51°03' E 002°21'3 2.9
2015-Jan-21 19:24N 51°03' E 002°17'0 0.0
2015-Jan-21 18:14N 51°03' E 002°17'0 0.0
2015-Jan-21 17:11N 51°03' E 002°17'0 0.0
2015-Jan-21 15:11N 51°03' E 002°17'0 0.0
2015-Jan-21 14:14N 51°03' E 002°17'0 0.0
2015-Jan-21 13:29N 51°03' E 002°17'0 0.0
2015-Jan-21 11:32N 51°03' E 002°17'0 0.0
2015-Jan-21 09:23N 51°03' E 002°17'0 0.0
2015-Jan-21 08:23N 51°03' E 002°17'0 0.0
2015-Jan-21 06:05N 51°03' E 002°17'0 0.0
2015-Jan-21 05:32N 51°03' E 002°17'0 0.0
2015-Jan-21 04:20N 51°03' E 002°17'0 0.0
2015-Jan-20 22:14N 51°03' E 002°17'0 0.0
2015-Jan-20 21:20N 51°03' E 002°17'0 0.0
2015-Jan-20 18:26N 51°03' E 002°17'0 0.0
2015-Jan-20 17:32N 51°03' E 002°17'0 0.0
2015-Jan-20 16:29N 51°03' E 002°17'0 0.4
2015-Jan-20 15:24N 51°03' E 002°16'0 0.0
2015-Jan-20 14:29N 51°03' E 002°16'0 0.0
2015-Jan-20 12:18N 51°03' E 002°16'0 0.0
2015-Jan-20 09:30N 51°03' E 002°16'0 0.0
2015-Jan-20 07:21N 51°03' E 002°16'0 0.0
2015-Jan-20 06:27N 51°03' E 002°16'0 0.0
2015-Jan-20 05:24N 51°03' E 002°16'0 0.0
2015-Jan-20 04:21N 51°03' E 002°16'0 0.0
2015-Jan-19 19:18N 51°03' E 002°16'0 0.0
2015-Jan-19 18:21N 51°03' E 002°16'0 0.0
2015-Jan-19 17:21N 51°03' E 002°16'0 0.0
2015-Jan-19 13:27N 51°03' E 002°16'0 0.0
2015-Jan-19 11:18N 51°03' E 002°16'0 0.0
2015-Jan-19 07:33N 51°03' E 002°16'0 0.0
2015-Jan-19 04:27N 51°03' E 002°16'0 0.0
2015-Jan-18 20:21N 51°03' E 002°16'0 0.0
2015-Jan-18 17:24N 51°03' E 002°16'0 0.0
2015-Jan-18 15:24N 51°03' E 002°16'0 0.0
2015-Jan-18 10:06N 51°03' E 002°16'0 0.0
2015-Jan-18 09:30N 51°03' E 002°16'3 2.8
2015-Jan-18 08:23N 51°03' E 002°21'12 6.2
2015-Jan-18 06:26N 51°03' E 002°02'3 3.3
2015-Jan-18 05:34N 51°04' E 001°58'5 5.2
2015-Jan-18 04:33N 51°07' E 002°05'5 5.1
2015-Jan-18 03:33N 51°10' E 002°11'4 4.3
2015-Jan-18 02:33N 51°15' E 002°10'5 4.5
2015-Jan-18 01:33N 51°18' E 002°06'4 4.4
2015-Jan-18 00:33N 51°22' E 002°02'4 4.2
2015-Jan-17 23:33N 51°26' E 002°00'4 3.6
2015-Jan-17 22:33N 51°29' E 002°04'4 3.5
2015-Jan-17 21:33N 51°31' E 002°07'5 4.7
2015-Jan-17 20:33N 51°35' E 002°13'5 4.7
2015-Jan-17 19:33N 51°38' E 002°18'6 4.6
2015-Jan-17 18:17N 51°42' E 002°24'139 5.9
2015-Jan-16 18:34N 53°31' E 004°48'6 5.9
2015-Jan-16 17:32N 53°33' E 004°57'5 5.6
2015-Jan-16 16:34N 53°35' E 005°06'5 4.9
2015-Jan-16 15:33N 53°36' E 005°14'5 4.5
2015-Jan-16 14:34N 53°38' E 005°21'4 4.3
2015-Jan-16 13:34N 53°39' E 005°28'4 4.2
2015-Jan-16 12:33N 53°40' E 005°35'4 4.2
2015-Jan-16 11:33N 53°42' E 005°41'5 4.8
2015-Jan-16 10:33N 53°43' E 005°49'5 5.5
2015-Jan-16 09:34N 53°45' E 005°58'6 5.2
2015-Jan-16 08:30N 53°47' E 006°06'  
Track history (hours):
 
Tides and Currents Weather Stations Pressure Air Temp Water Temp Dewpoint Dewpoint Depression Visibility Wind Speed Wind Dir Waves Ship Positions

Wilson Lisbon

Last reported at 2015-Jan-26 03:33 UTC. Time now 2015-Jan-27 03:27 UTC.
Position N 55°33' E 015°19'.

Length 90 m; draft 5.7 m.

Type: Ship. MMSI: 212376000.

Date/timePositionNaut miles runAvg speedWind from/ knotsBaromVisibWave heightAir tempDewpointWater temp
2015-Jan-26 03:33N 55°33' E 015°19'9 8.2
2015-Jan-26 02:28N 55°29' E 015°04'8 8.6
2015-Jan-26 01:33N 55°26' E 014°52'8 8.3
2015-Jan-26 00:32N 55°22' E 014°39'8 8.5
2015-Jan-25 23:33N 55°15' E 014°30'8 7.5
2015-Jan-25 22:32N 55°11' E 014°18'36 8.1
2015-Jan-25 18:08N 55°12' E 013°16'5 7.8
2015-Jan-25 17:33N 55°13' E 013°08'8 8.2
2015-Jan-25 16:33N 55°15' E 012°54'8 8.3
2015-Jan-25 15:34N 55°17' E 012°40'7 6.7
2015-Jan-25 14:33N 55°24' E 012°39'9 8.8
2015-Jan-25 13:33N 55°33' E 012°42'9 9.3
2015-Jan-25 12:33N 55°42' E 012°41'8 8.1
2015-Jan-25 11:34N 55°50' E 012°41'8 8.1
2015-Jan-25 10:33N 55°58' E 012°38'7 6.7
2015-Jan-25 09:33N 56°05' E 012°36'7 7.4
2015-Jan-25 08:33N 56°09' E 012°25'9 8.6
2015-Jan-25 07:33N 56°14' E 012°13'24 8.0
2015-Jan-25 04:33N 56°36' E 011°56'8 8.1
2015-Jan-25 03:33N 56°44' E 011°52'8 7.8
2015-Jan-25 02:33N 56°52' E 011°48'8 7.5
2015-Jan-25 01:27N 56°59' E 011°41'8 7.5
2015-Jan-25 00:22N 57°07' E 011°36'7 8.1
2015-Jan-24 23:33N 57°13' E 011°40'8 7.9
2015-Jan-24 22:33N 57°21' E 011°38'6 6.3
2015-Jan-24 21:33N 57°27' E 011°37'7 6.6
2015-Jan-24 20:34N 57°34' E 011°38'7 7.2
2015-Jan-24 19:33N 57°40' E 011°46'1 1.3
2015-Jan-24 18:34N 57°40' E 011°48'2 1.8
2015-Jan-24 17:34N 57°39' E 011°45'7 7.4
2015-Jan-24 16:34N 57°36' E 011°33'7 6.7
2015-Jan-24 15:34N 57°39' E 011°22'7 6.9
2015-Jan-24 14:33N 57°42' E 011°10'7 7.4
2015-Jan-24 13:33N 57°45' E 010°57'8 8.1
2015-Jan-24 12:31N 57°47' E 010°42'110 8.5
2015-Jan-23 23:33N 56°47' E 007°52'8 8.0
2015-Jan-23 22:33N 56°41' E 007°43'8 8.0
2015-Jan-23 21:32N 56°34' E 007°34'160 8.0
2015-Jan-23 01:33N 54°17' E 005°10'8 8.0
2015-Jan-23 00:33N 54°10' E 005°03'8 8.0
2015-Jan-22 23:33N 54°03' E 004°57'8 8.1
2015-Jan-22 22:30N 53°55' E 004°55'9 8.2
2015-Jan-22 21:28N 53°46' E 004°52'8 8.2
2015-Jan-22 20:27N 53°38' E 004°50'8 9.2
2015-Jan-22 19:33N 53°30' E 004°46'1010.1
2015-Jan-22 18:34N 53°21' E 004°41'2110.4
2015-Jan-22 16:33N 53°02' E 004°24'59 7.2
2015-Jan-22 08:24N 52°17' E 003°22'54 8.8
2015-Jan-22 02:15N 51°36' E 002°24'710.1
2015-Jan-22 01:30N 51°30' E 002°17'9 9.7
2015-Jan-22 00:33N 51°22' E 002°09'7 7.1
2015-Jan-21 23:33N 51°15' E 002°10'6 6.8
2015-Jan-21 22:44N 51°10' E 002°10'3 7.6
2015-Jan-21 22:24N 51°08' E 002°08'4 5.2
2015-Jan-21 21:33N 51°03' E 002°07'9 7.3
2015-Jan-21 20:19N 51°03' E 002°21'3 2.9
2015-Jan-21 19:24N 51°03' E 002°17'0 0.0
2015-Jan-21 18:14N 51°03' E 002°17'0 0.0
2015-Jan-21 17:11N 51°03' E 002°17'0 0.0
2015-Jan-21 15:11N 51°03' E 002°17'0 0.0
2015-Jan-21 14:14N 51°03' E 002°17'0 0.0
2015-Jan-21 13:29N 51°03' E 002°17'0 0.0
2015-Jan-21 11:32N 51°03' E 002°17'0 0.0
2015-Jan-21 09:23N 51°03' E 002°17'0 0.0
2015-Jan-21 08:23N 51°03' E 002°17'0 0.0
2015-Jan-21 06:05N 51°03' E 002°17'0 0.0
2015-Jan-21 05:32N 51°03' E 002°17'0 0.0
2015-Jan-21 04:20N 51°03' E 002°17'0 0.0
2015-Jan-20 22:14N 51°03' E 002°17'0 0.0
2015-Jan-20 21:20N 51°03' E 002°17'0 0.0
2015-Jan-20 18:26N 51°03' E 002°17'0 0.0
2015-Jan-20 17:32N 51°03' E 002°17'0 0.0
2015-Jan-20 16:29N 51°03' E 002°17'0 0.4
2015-Jan-20 15:24N 51°03' E 002°16'0 0.0
2015-Jan-20 14:29N 51°03' E 002°16'0 0.0
2015-Jan-20 12:18N 51°03' E 002°16'0 0.0
2015-Jan-20 09:30N 51°03' E 002°16'0 0.0
2015-Jan-20 07:21N 51°03' E 002°16'0 0.0
2015-Jan-20 06:27N 51°03' E 002°16'0 0.0
2015-Jan-20 05:24N 51°03' E 002°16'0 0.0
2015-Jan-20 04:21N 51°03' E 002°16'0 0.0
2015-Jan-19 19:18N 51°03' E 002°16'0 0.0
2015-Jan-19 18:21N 51°03' E 002°16'0 0.0
2015-Jan-19 17:21N 51°03' E 002°16'0 0.0
2015-Jan-19 13:27N 51°03' E 002°16'0 0.0
2015-Jan-19 11:18N 51°03' E 002°16'0 0.0
2015-Jan-19 07:33N 51°03' E 002°16'0 0.0
2015-Jan-19 04:27N 51°03' E 002°16'0 0.0
2015-Jan-18 20:21N 51°03' E 002°16'0 0.0
2015-Jan-18 17:24N 51°03' E 002°16'0 0.0
2015-Jan-18 15:24N 51°03' E 002°16'0 0.0
2015-Jan-18 10:06N 51°03' E 002°16'0 0.0
2015-Jan-18 09:30N 51°03' E 002°16'3 2.8
2015-Jan-18 08:23N 51°03' E 002°21'12 6.2
2015-Jan-18 06:26N 51°03' E 002°02'3 3.3
2015-Jan-18 05:34N 51°04' E 001°58'5 5.2
2015-Jan-18 04:33N 51°07' E 002°05'5 5.1
2015-Jan-18 03:33N 51°10' E 002°11'4 4.3
2015-Jan-18 02:33N 51°15' E 002°10'5 4.5
2015-Jan-18 01:33N 51°18' E 002°06'4 4.4
2015-Jan-18 00:33N 51°22' E 002°02'4 4.2
2015-Jan-17 23:33N 51°26' E 002°00'4 3.6
2015-Jan-17 22:33N 51°29' E 002°04'4 3.5
2015-Jan-17 21:33N 51°31' E 002°07'5 4.7
2015-Jan-17 20:33N 51°35' E 002°13'5 4.7
2015-Jan-17 19:33N 51°38' E 002°18'6 4.6
2015-Jan-17 18:17N 51°42' E 002°24'139 5.9
2015-Jan-16 18:34N 53°31' E 004°48'6 5.9
2015-Jan-16 17:32N 53°33' E 004°57'5 5.6
2015-Jan-16 16:34N 53°35' E 005°06'5 4.9
2015-Jan-16 15:33N 53°36' E 005°14'5 4.5
2015-Jan-16 14:34N 53°38' E 005°21'4 4.3
2015-Jan-16 13:34N 53°39' E 005°28'4 4.2
2015-Jan-16 12:33N 53°40' E 005°35'4 4.2
2015-Jan-16 11:33N 53°42' E 005°41'5 4.8
2015-Jan-16 10:33N 53°43' E 005°49'5 5.5
2015-Jan-16 09:34N 53°45' E 005°58'6 5.2
2015-Jan-16 08:30N 53°47' E 006°06'  

Dump ship's entire track history